»·PEaware :: N145BE KSMX-KBFL

N145BE :: KSMX-KBFL

FLIGHT INFORMATION

Flight Status: Arrived
Operator: Privately registered:
United States
More flights under this callsign
Pilot: Santiago S. (22950)
Aircraft: BEECH AIRCRAFT BARON
(BE58)
More flights by this aircraft type
Origin: KSMX Santa Maria Pub/Capt Hancock
United States
Destination: KBFL Meadows
United States
More flights between these airports :: More routes between these airports
Route: +DCT
File this flight plan on PilotEdge
Remarks: Sample flight plan
Altitude:
(Current/Filed)
7,000ft
Speed:
(Current/Filed)
170kts
Departed: 03-Feb-19 03:31 PM
Arrived: 03-Feb-19 04:16 PM
Distance/Time
Traveled:
76nm/0:44
Distance/Time
To Go:
Arrived

Flight Plot

Page will automatically refresh every two minutes.


Map Options




Map Legend


Flown Route
Filed Route
Departure Airport
Arrival Airport
Navaid (VOR, NDB)
Fix

Horizontal Profiles

Position Reports

Time Latitude Longitude Heading Altitude Ground
Speed
03-Feb-19 15:23 34.906699 -120.458279 232 0ft 0kts
03-Feb-19 15:23 34.906699 -120.458279 232 0ft 0kts
03-Feb-19 15:24 34.906699 -120.458279 232 0ft 0kts
03-Feb-19 15:25 34.906699 -120.458279 232 0ft 0kts
03-Feb-19 15:26 34.906699 -120.458279 232 0ft 0kts
03-Feb-19 15:28 34.906699 -120.458279 232 0ft 0kts
03-Feb-19 15:28 34.906699 -120.458279 232 0ft 0kts
03-Feb-19 15:29 34.906204 -120.458863 222 0ft 0kts
03-Feb-19 15:30 34.901242 -120.453470 135 0ft 41kts
03-Feb-19 15:31 34.894122 -120.445246 175 0ft 14kts
03-Feb-19 15:32 34.893504 -120.445251 184 0ft 2kts
03-Feb-19 15:33 34.900218 -120.454662 317 114ft 117kts
03-Feb-19 15:34 34.914407 -120.471830 315 1509ft 101kts
03-Feb-19 15:35 34.930382 -120.484584 8 2379ft 109kts
03-Feb-19 15:36 34.939730 -120.465623 83 3143ft 111kts
03-Feb-19 15:37 34.943910 -120.440547 73 3940ft 110kts
03-Feb-19 15:38 34.952818 -120.414272 66 4777ft 109kts
03-Feb-19 15:39 34.962035 -120.388561 66 5553ft 108kts
03-Feb-19 15:40 34.971006 -120.363663 66 6262ft 108kts
03-Feb-19 15:41 34.979788 -120.339325 65 6914ft 107kts
03-Feb-19 15:42 34.988626 -120.314837 66 7519ft 109kts
03-Feb-19 15:43 35.000315 -120.282378 66 7499ft 155kts
03-Feb-19 15:44 35.014553 -120.242838 66 7490ft 178kts
03-Feb-19 15:45 35.029235 -120.202048 66 7486ft 184kts
03-Feb-19 15:46 35.044560 -120.159420 66 7486ft 186kts
03-Feb-19 15:47 35.060646 -120.114610 66 7485ft 186kts
03-Feb-19 15:48 35.076382 -120.070725 66 7598ft 182kts
03-Feb-19 15:49 35.091384 -120.028808 66 7596ft 185kts
03-Feb-19 15:50 35.106830 -119.985601 66 7595ft 186kts
03-Feb-19 15:51 35.122095 -119.942843 66 7595ft 186kts
03-Feb-19 15:52 35.137460 -119.899747 66 7595ft 186kts
03-Feb-19 15:53 35.153196 -119.856133 66 7595ft 186kts
03-Feb-19 15:54 35.169128 -119.811507 66 7595ft 186kts
03-Feb-19 15:55 35.185350 -119.765851 66 7595ft 186kts
03-Feb-19 15:56 35.201395 -119.720596 66 7595ft 186kts
03-Feb-19 15:57 35.216252 -119.678631 66 7595ft 186kts
03-Feb-19 15:58 35.232213 -119.633481 66 7595ft 186kts
03-Feb-19 15:59 35.247959 -119.588837 66 7595ft 186kts
03-Feb-19 16:00 35.263161 -119.545674 66 7127ft 204kts
03-Feb-19 16:01 35.279576 -119.499680 66 6527ft 208kts
03-Feb-19 16:02 35.296577 -119.452292 66 5931ft 208kts
03-Feb-19 16:03 35.313597 -119.404860 66 5347ft 208kts
03-Feb-19 16:04 35.331127 -119.356010 66 4756ft 208kts
03-Feb-19 16:05 35.348873 -119.306563 66 4168ft 207kts
03-Feb-19 16:06 35.366345 -119.257901 66 3568ft 195kts
03-Feb-19 16:07 35.382674 -119.212509 65 2911ft 182kts
03-Feb-19 16:08 35.390886 -119.168012 103 2209ft 178kts
03-Feb-19 16:09 35.381525 -119.125930 105 1622ft 174kts
03-Feb-19 16:10 35.367437 -119.088352 128 1639ft 152kts
03-Feb-19 16:11 35.368928 -119.055738 46 1645ft 144kts
03-Feb-19 16:12 35.391358 -119.033910 24 1317ft 128kts
03-Feb-19 16:13 35.415321 -119.033971 327 403ft 109kts
03-Feb-19 16:14 35.431211 -119.052929 315 53ft 97kts
03-Feb-19 16:15 35.438050 -119.060214 41 0ft 16kts
03-Feb-19 16:16 35.438247 -119.059597 88 0ft 0kts
03-Feb-19 16:17 35.437635 -119.056742 87 0ft 28kts
03-Feb-19 16:18 35.436934 -119.054414 346 0ft 0kts
03-Feb-19 16:19 35.436934 -119.054414 346 0ft 0kts
03-Feb-19 16:20 35.436934 -119.054414 346 0ft 0kts
03-Feb-19 16:21 35.436934 -119.054414 346 0ft 0kts

Navigation Log

Ident Type
Flight plan parsing failed, navigation log unavailable